createdAt,value
2019-02-18T00:01:20.226Z,50.30
2019-02-18T00:03:27.965Z,38.07
2019-02-18T00:05:35.703Z,35.17
2019-02-18T00:07:43.273Z,37.90
2019-02-18T00:09:51.015Z,32.97
2019-02-18T00:11:58.800Z,32.93
2019-02-18T00:14:06.642Z,33.60
2019-02-18T00:16:14.658Z,35.00
2019-02-18T00:18:22.477Z,39.07
2019-02-18T00:20:30.249Z,41.53
2019-02-18T00:22:37.974Z,41.03
2019-02-18T00:24:45.626Z,42.60
2019-02-18T00:26:53.343Z,41.53
2019-02-18T00:29:01.141Z,40.10
2019-02-18T00:31:08.865Z,39.80
2019-02-18T00:33:16.472Z,44.17
2019-02-18T00:35:24.114Z,39.03
2019-02-18T00:37:31.810Z,37.20
2019-02-18T00:39:39.530Z,38.30
2019-02-18T00:41:49.305Z,39.83
2019-02-18T00:43:56.705Z,38.70
2019-02-18T00:46:04.463Z,38.53
2019-02-18T00:48:12.372Z,39.97
2019-02-18T00:50:20.067Z,37.50
2019-02-18T00:52:27.837Z,38.03
2019-02-18T00:54:35.546Z,41.77
2019-02-18T00:56:43.203Z,37.00
2019-02-18T00:58:50.991Z,40.13
2019-02-18T01:00:58.843Z,44.80
2019-02-18T01:03:06.611Z,42.67
2019-02-18T01:05:14.500Z,45.63
2019-02-18T01:07:22.233Z,45.10
2019-02-18T01:09:30.011Z,44.77
2019-02-18T01:11:37.678Z,46.03
2019-02-18T01:13:45.515Z,44.77
2019-02-18T01:15:53.267Z,43.43
2019-02-18T01:18:00.845Z,43.10
2019-02-18T01:20:09.840Z,44.17
2019-02-18T01:22:17.589Z,40.77
2019-02-18T01:24:25.400Z,42.00
2019-02-18T01:26:33.083Z,43.87
2019-02-18T01:28:40.847Z,42.30
2019-02-18T01:30:48.510Z,40.33
2019-02-18T01:32:56.247Z,34.87
2019-02-18T01:35:04.073Z,34.50
2019-02-18T01:37:11.909Z,33.50
2019-02-18T01:39:19.659Z,37.03
2019-02-18T01:41:27.376Z,42.80
2019-02-18T01:43:35.056Z,39.90
2019-02-18T01:45:42.800Z,36.57
2019-02-18T01:47:50.527Z,37.97
2019-02-18T01:49:58.297Z,35.00
2019-02-18T01:52:06.031Z,33.63
2019-02-18T01:54:13.851Z,31.20
2019-02-18T01:56:21.520Z,30.93
2019-02-18T01:58:29.104Z,30.87
2019-02-18T02:00:37.011Z,32.73
2019-02-18T02:02:45.004Z,31.77
2019-02-18T02:04:52.427Z,31.10
2019-02-18T02:07:00.023Z,28.87
2019-02-18T02:09:12.791Z,30.30
2019-02-18T02:11:20.470Z,28.17
2019-02-18T02:13:33.411Z,29.07
2019-02-18T02:15:41.223Z,29.20
2019-02-18T02:17:49.035Z,30.13
2019-02-18T02:19:56.864Z,30.03
2019-02-18T02:22:04.541Z,28.00
2019-02-18T02:24:12.321Z,28.53
2019-02-18T02:26:20.075Z,30.43
2019-02-18T02:28:27.906Z,29.50
2019-02-18T02:30:35.354Z,33.43
2019-02-18T02:32:43.091Z,32.77
2019-02-18T02:34:50.718Z,30.90
2019-02-18T02:36:58.472Z,31.90
2019-02-18T02:39:06.976Z,30.73
2019-02-18T02:41:14.702Z,29.97
2019-02-18T02:43:22.460Z,32.57
2019-02-18T02:45:30.345Z,35.50
2019-02-18T02:47:37.989Z,33.20
2019-02-18T02:49:45.532Z,35.47
2019-02-18T02:51:53.061Z,33.40
2019-02-18T02:54:00.675Z,31.30
2019-02-18T02:56:08.383Z,30.60
2019-02-18T02:58:16.006Z,29.97
2019-02-18T03:00:23.567Z,29.83
2019-02-18T03:02:31.205Z,29.47
2019-02-18T03:04:39.030Z,29.13
2019-02-18T03:06:46.726Z,29.10
2019-02-18T03:08:54.364Z,28.40
2019-02-18T03:11:02.006Z,32.37
2019-02-18T03:13:09.812Z,29.73
2019-02-18T03:15:17.370Z,29.97
2019-02-18T03:17:25.027Z,28.47
2019-02-18T03:19:32.905Z,30.20
2019-02-18T03:21:40.521Z,29.73
2019-02-18T03:23:48.254Z,29.73
2019-02-18T03:25:56.980Z,33.20
2019-02-18T03:28:32.925Z,34.83
2019-02-18T03:30:57.949Z,37.57
2019-02-18T03:33:05.758Z,30.93
2019-02-18T03:35:13.505Z,29.17
2019-02-18T03:37:21.303Z,29.60
2019-02-18T03:39:28.978Z,29.33
2019-02-18T03:41:36.988Z,31.47
2019-02-18T03:43:44.965Z,29.43
2019-02-18T03:45:52.552Z,28.93
2019-02-18T03:48:00.352Z,28.33
2019-02-18T03:50:08.408Z,28.90
2019-02-18T03:52:16.086Z,27.93
2019-02-18T03:54:24.153Z,28.37
2019-02-18T03:56:31.871Z,26.77
2019-02-18T03:58:39.769Z,27.43
2019-02-18T04:00:47.714Z,26.77
2019-02-18T04:02:55.444Z,27.57
2019-02-18T04:05:03.199Z,28.10
2019-02-18T04:07:10.920Z,27.77
2019-02-18T04:09:18.578Z,27.60
2019-02-18T04:11:26.438Z,26.73
2019-02-18T04:13:34.124Z,26.80
2019-02-18T04:15:41.800Z,28.87
2019-02-18T04:17:49.559Z,27.73
2019-02-18T04:19:57.280Z,27.20
2019-02-18T04:22:05.067Z,27.90
2019-02-18T04:24:12.730Z,26.63
2019-02-18T04:26:20.406Z,28.07
2019-02-18T04:28:28.029Z,25.63
2019-02-18T04:30:35.948Z,27.43
2019-02-18T04:32:43.403Z,26.47
2019-02-18T04:34:51.148Z,26.47
2019-02-18T04:36:58.871Z,27.90
2019-02-18T04:39:07.703Z,28.87
2019-02-18T04:41:15.337Z,31.37
2019-02-18T04:43:23.060Z,32.07
2019-02-18T04:45:30.654Z,34.13
2019-02-18T04:47:38.280Z,36.70
2019-02-18T04:49:45.999Z,35.27
2019-02-18T04:51:53.626Z,34.40
2019-02-18T04:54:01.451Z,34.93
2019-02-18T04:56:09.289Z,33.33
2019-02-18T04:58:17.065Z,31.10
2019-02-18T05:00:24.799Z,30.70
2019-02-18T05:02:32.371Z,28.53
2019-02-18T05:04:40.306Z,28.43
2019-02-18T05:06:48.002Z,28.23
2019-02-18T05:09:05.094Z,29.07
2019-02-18T05:11:05.136Z,27.90
2019-02-18T05:13:12.819Z,28.67
2019-02-18T05:15:20.448Z,29.27
2019-02-18T05:17:28.070Z,28.20
2019-02-18T05:19:36.030Z,28.17
2019-02-18T05:21:43.749Z,27.80
2019-02-18T05:23:51.451Z,27.37
2019-02-18T05:25:59.226Z,27.40
2019-02-18T05:28:06.997Z,27.50
2019-02-18T05:30:14.756Z,28.43
2019-02-18T05:32:22.468Z,31.23
2019-02-18T05:34:30.161Z,29.77
2019-02-18T05:36:37.968Z,31.20
2019-02-18T05:38:45.694Z,36.47
2019-02-18T05:40:53.338Z,33.90
2019-02-18T05:43:01.123Z,34.10
2019-02-18T05:45:08.991Z,34.27
2019-02-18T05:47:17.635Z,34.63
2019-02-18T05:49:25.560Z,32.60
2019-02-18T05:51:33.229Z,32.03
2019-02-18T05:53:40.986Z,32.87
2019-02-18T05:55:48.767Z,30.87
2019-02-18T05:57:56.372Z,32.70
2019-02-18T06:00:04.083Z,32.30
2019-02-18T06:02:11.750Z,40.73
2019-02-18T06:04:19.561Z,37.83
2019-02-18T06:06:27.259Z,39.37
2019-02-18T06:08:34.935Z,40.20
2019-02-18T06:10:42.650Z,39.40
2019-02-18T06:12:50.351Z,41.93
2019-02-18T06:14:58.151Z,47.27
2019-02-18T06:17:05.764Z,47.73
2019-02-18T06:19:13.613Z,46.03
2019-02-18T06:21:21.301Z,49.47
2019-02-18T06:23:29.006Z,44.27
2019-02-18T06:25:36.755Z,47.10
2019-02-18T06:27:44.655Z,57.77
2019-02-18T06:29:52.423Z,58.27
2019-02-18T06:32:00.166Z,62.67
2019-02-18T06:34:07.907Z,81.93
2019-02-18T06:36:15.726Z,90.90
2019-02-18T06:38:23.472Z,64.93
2019-02-18T06:40:31.411Z,54.47
2019-02-18T06:42:39.049Z,54.73
2019-02-18T06:44:55.579Z,52.77
2019-02-18T06:47:07.643Z,47.50
2019-02-18T06:49:17.550Z,43.50
2019-02-18T06:51:25.389Z,41.33
2019-02-18T06:53:33.199Z,42.30
2019-02-18T06:55:40.856Z,48.53
2019-02-18T06:58:16.057Z,46.83
2019-02-18T07:00:38.960Z,46.70
2019-02-18T07:02:57.588Z,41.90
2019-02-18T07:05:13.486Z,39.37
2019-02-18T07:07:45.990Z,38.77
2019-02-18T07:10:06.299Z,63.20
2019-02-18T07:12:26.865Z,53.27
2019-02-18T07:14:34.590Z,56.43
2019-02-18T07:16:42.305Z,57.73
2019-02-18T07:18:50.037Z,55.70
2019-02-18T07:20:57.733Z,55.30
2019-02-18T07:23:05.416Z,58.80
2019-02-18T07:25:13.349Z,58.30
2019-02-18T07:27:21.075Z,46.23
2019-02-18T07:29:28.766Z,41.03
2019-02-18T07:31:36.428Z,40.47
2019-02-18T07:33:44.232Z,40.07
2019-02-18T07:35:51.904Z,40.20
2019-02-18T07:37:59.684Z,36.10
2019-02-18T07:40:08.936Z,33.37
2019-02-18T07:42:16.760Z,33.73
2019-02-18T07:44:24.425Z,35.23
2019-02-18T07:46:32.259Z,33.20
2019-02-18T07:48:40.015Z,31.13
2019-02-18T07:50:47.756Z,31.60
2019-02-18T07:52:55.577Z,33.40
2019-02-18T07:55:03.219Z,35.10
2019-02-18T07:57:10.897Z,32.03
2019-02-18T07:59:18.682Z,31.30
2019-02-18T08:01:26.455Z,29.10
2019-02-18T08:03:34.259Z,28.10
2019-02-18T08:05:42.123Z,34.07
2019-02-18T08:07:49.923Z,30.70
2019-02-18T08:09:57.560Z,30.70
2019-02-18T08:12:05.414Z,32.20
2019-02-18T08:14:13.023Z,31.67
2019-02-18T08:16:20.737Z,30.70
2019-02-18T08:18:28.596Z,32.20
2019-02-18T08:20:36.337Z,31.47
2019-02-18T08:22:44.043Z,33.57
2019-02-18T08:24:51.964Z,30.63
2019-02-18T08:26:59.677Z,31.70
2019-02-18T08:29:07.339Z,31.97
2019-02-18T08:31:16.889Z,31.20
2019-02-18T08:33:24.624Z,30.63
2019-02-18T08:35:32.277Z,28.90
2019-02-18T08:37:40.027Z,30.70
2019-02-18T08:39:47.932Z,28.60
2019-02-18T08:41:55.726Z,28.07
2019-02-18T08:44:03.513Z,27.17
2019-02-18T08:46:11.164Z,28.23
2019-02-18T08:48:18.834Z,26.20
2019-02-18T08:50:26.587Z,25.43
2019-02-18T08:52:34.227Z,26.07
2019-02-18T08:54:42.297Z,27.20
2019-02-18T08:56:50.177Z,26.50
2019-02-18T08:58:57.805Z,27.37
2019-02-18T09:01:05.462Z,26.47
2019-02-18T09:03:13.269Z,25.63
2019-02-18T09:05:21.190Z,27.07
2019-02-18T09:07:29.064Z,26.33
2019-02-18T09:09:36.976Z,24.83
2019-02-18T09:11:44.835Z,25.83
2019-02-18T09:13:52.512Z,26.93
2019-02-18T09:16:00.654Z,33.73
2019-02-18T09:18:09.042Z,24.87
2019-02-18T09:20:16.854Z,24.97
2019-02-18T09:22:42.223Z,22.43
2019-02-18T09:24:56.461Z,22.87
2019-02-18T09:27:04.051Z,25.50
2019-02-18T09:29:11.848Z,23.67
2019-02-18T09:31:24.986Z,22.77
2019-02-18T09:33:32.778Z,21.03
2019-02-18T09:35:41.144Z,22.70
2019-02-18T09:37:48.987Z,20.97
2019-02-18T09:39:56.649Z,23.97
2019-02-18T09:42:04.373Z,18.27
2019-02-18T09:44:12.479Z,19.20
2019-02-18T09:46:20.037Z,19.00
2019-02-18T09:48:27.872Z,21.63
2019-02-18T09:50:35.758Z,20.43
2019-02-18T09:52:43.516Z,18.80
2019-02-18T09:54:51.352Z,18.63
2019-02-18T09:56:59.133Z,17.17
2019-02-18T09:59:06.996Z,18.03
2019-02-18T10:01:14.786Z,18.67
2019-02-18T10:03:31.681Z,19.33
2019-02-18T10:05:31.959Z,18.70
2019-02-18T10:07:39.766Z,15.97
2019-02-18T10:09:47.637Z,14.70
2019-02-18T10:11:55.387Z,14.50
2019-02-18T10:14:03.234Z,13.40
2019-02-18T10:16:11.045Z,13.27
2019-02-18T10:18:18.733Z,13.70
2019-02-18T10:20:26.600Z,15.63
2019-02-18T10:22:34.466Z,12.83
2019-02-18T10:24:50.749Z,11.93
2019-02-18T10:26:51.882Z,13.90
2019-02-18T10:28:59.778Z,14.73
2019-02-18T10:31:07.734Z,13.53
2019-02-18T10:33:15.782Z,14.00
2019-02-18T10:35:26.352Z,13.53
2019-02-18T10:37:33.493Z,12.77
2019-02-18T10:39:41.270Z,14.70
2019-02-18T10:41:49.306Z,13.00
2019-02-18T10:43:57.194Z,13.57
2019-02-18T10:46:05.116Z,12.93
2019-02-18T10:48:12.996Z,11.33
2019-02-18T10:50:21.093Z,11.07
2019-02-18T10:52:28.880Z,10.80
2019-02-18T10:54:37.240Z,12.30
2019-02-18T10:56:45.140Z,12.27
2019-02-18T10:58:53.091Z,9.27
2019-02-18T11:01:00.892Z,9.73
2019-02-18T11:03:09.317Z,11.30
2019-02-18T11:05:17.424Z,12.20
2019-02-18T11:07:25.270Z,12.37
2019-02-18T11:09:33.129Z,11.67
2019-02-18T11:11:40.996Z,11.33
2019-02-18T11:13:49.194Z,11.70
2019-02-18T11:15:57.008Z,11.23
2019-02-18T11:18:04.899Z,9.67
2019-02-18T11:20:13.056Z,9.47
2019-02-18T11:22:20.706Z,10.30
2019-02-18T11:24:28.459Z,9.50
2019-02-18T11:26:36.419Z,9.43
2019-02-18T11:28:44.244Z,10.03
2019-02-18T11:30:51.968Z,10.33
2019-02-18T11:32:59.535Z,9.13
2019-02-18T11:35:08.073Z,11.33
2019-02-18T11:37:15.848Z,11.17
2019-02-18T11:39:23.776Z,13.80
2019-02-18T11:41:31.621Z,14.23
2019-02-18T11:43:39.741Z,12.47
2019-02-18T11:45:47.578Z,12.43
2019-02-18T11:47:55.334Z,12.00
2019-02-18T11:50:03.231Z,11.73
2019-02-18T11:52:11.009Z,12.13
2019-02-18T11:54:18.706Z,11.93
2019-02-18T11:56:26.408Z,11.20
2019-02-18T11:58:34.569Z,12.00
2019-02-18T12:01:03.928Z,11.37
2019-02-18T12:03:12.708Z,11.80
2019-02-18T12:05:20.852Z,11.40
2019-02-18T12:07:28.882Z,11.00
2019-02-18T12:09:36.574Z,11.47
2019-02-18T12:11:44.370Z,11.80
2019-02-18T12:13:52.187Z,11.33
2019-02-18T12:15:59.944Z,13.00
2019-02-18T12:18:08.709Z,9.90
2019-02-18T12:20:17.175Z,10.30
2019-02-18T12:22:25.508Z,10.23
2019-02-18T12:24:33.547Z,10.00
2019-02-18T12:26:41.459Z,9.87
2019-02-18T12:28:49.340Z,9.80
2019-02-18T12:30:56.991Z,9.73
2019-02-18T12:33:05.237Z,11.30
2019-02-18T12:35:13.492Z,11.73
2019-02-18T12:37:21.147Z,11.40
2019-02-18T12:39:28.815Z,11.73
2019-02-18T12:41:36.772Z,11.93
2019-02-18T12:43:44.553Z,13.13
2019-02-18T12:45:52.569Z,23.53
2019-02-18T12:48:00.656Z,14.77
2019-02-18T12:50:09.006Z,13.27
2019-02-18T12:52:16.700Z,12.90
2019-02-18T12:54:24.515Z,16.27
2019-02-18T12:56:32.165Z,15.53
2019-02-18T12:58:39.902Z,12.77
2019-02-18T13:00:47.876Z,12.60
2019-02-18T13:02:55.587Z,12.17
2019-02-18T13:05:03.917Z,14.13
2019-02-18T13:07:11.834Z,13.10
2019-02-18T13:09:19.750Z,12.30
2019-02-18T13:11:27.608Z,12.13
2019-02-18T13:13:35.395Z,13.63
2019-02-18T13:15:43.083Z,13.50
2019-02-18T13:17:51.000Z,11.53
2019-02-18T13:19:58.710Z,13.20
2019-02-18T13:22:06.411Z,13.13
2019-02-18T13:24:14.484Z,11.20
2019-02-18T13:26:22.265Z,12.03
2019-02-18T13:28:30.046Z,12.70
2019-02-18T13:30:38.007Z,12.47
2019-02-18T13:32:45.794Z,12.03
2019-02-18T13:34:53.592Z,11.33
2019-02-18T13:37:03.554Z,13.30
2019-02-18T13:39:11.902Z,10.63
2019-02-18T13:41:19.794Z,11.27
2019-02-18T13:43:27.628Z,11.10
2019-02-18T13:45:35.624Z,12.57
2019-02-18T13:47:43.859Z,13.00
2019-02-18T13:49:51.807Z,12.53
2019-02-18T13:51:59.756Z,11.63
2019-02-18T13:54:07.962Z,14.73
2019-02-18T13:56:16.062Z,13.27
2019-02-18T13:58:23.982Z,13.57
2019-02-18T14:00:31.911Z,13.17
2019-02-18T14:02:40.055Z,13.27
2019-02-18T14:04:48.294Z,13.37
2019-02-18T14:06:56.069Z,12.23
2019-02-18T14:09:04.266Z,14.40
2019-02-18T14:11:12.282Z,14.73
2019-02-18T14:13:19.951Z,14.17
2019-02-18T14:15:27.976Z,15.50
2019-02-18T14:17:36.027Z,14.03
2019-02-18T14:19:43.808Z,15.87
2019-02-18T14:21:51.925Z,15.27
2019-02-18T14:24:00.878Z,15.03
2019-02-18T14:26:08.802Z,16.00
2019-02-18T14:28:17.258Z,15.00
2019-02-18T14:30:25.579Z,16.03
2019-02-18T14:32:33.483Z,15.67
2019-02-18T14:34:41.419Z,16.87
2019-02-18T14:36:49.450Z,18.13
2019-02-18T14:38:57.909Z,17.90
2019-02-18T14:41:06.260Z,18.80
2019-02-18T14:43:14.530Z,18.53
2019-02-18T14:45:22.351Z,19.90
2019-02-18T14:47:30.688Z,19.17
2019-02-18T14:49:38.451Z,19.20
2019-02-18T14:51:46.668Z,19.37
2019-02-18T14:53:55.153Z,18.33
2019-02-18T14:56:03.230Z,19.07
2019-02-18T14:58:11.630Z,17.93
2019-02-18T15:00:24.220Z,18.67
2019-02-18T15:02:31.909Z,18.30
2019-02-18T15:04:39.708Z,18.10
2019-02-18T15:06:47.376Z,19.90
2019-02-18T15:08:55.363Z,18.70
2019-02-18T15:11:03.810Z,19.73
2019-02-18T15:13:11.660Z,16.87
2019-02-18T15:15:19.517Z,17.67
2019-02-18T15:17:27.302Z,17.80
2019-02-18T15:19:35.183Z,18.27
2019-02-18T15:21:43.179Z,20.27
2019-02-18T15:23:51.023Z,19.17
2019-02-18T15:25:58.880Z,20.70
2019-02-18T15:28:07.043Z,20.67
2019-02-18T15:30:15.950Z,21.30
2019-02-18T15:32:23.807Z,19.93
2019-02-18T15:34:31.761Z,20.93
2019-02-18T15:36:39.694Z,21.90
2019-02-18T15:38:48.088Z,20.40
2019-02-18T15:40:56.305Z,22.50
2019-02-18T15:43:06.594Z,22.03
2019-02-18T15:45:15.952Z,22.30
2019-02-18T15:47:24.363Z,23.47
2019-02-18T15:49:33.335Z,23.23
2019-02-18T15:51:41.466Z,22.97
2019-02-18T15:53:49.181Z,23.37
2019-02-18T15:55:57.006Z,23.17
2019-02-18T15:58:04.919Z,24.13
2019-02-18T16:00:17.913Z,23.90
2019-02-18T16:02:26.047Z,30.17
2019-02-18T16:04:33.912Z,26.00
2019-02-18T16:06:41.950Z,32.50
2019-02-18T16:08:49.675Z,29.60
2019-02-18T16:10:57.585Z,34.13
2019-02-18T16:13:05.516Z,33.63
2019-02-18T16:15:13.553Z,36.47
2019-02-18T16:17:21.689Z,38.67
2019-02-18T16:19:49.747Z,38.97
2019-02-18T16:21:57.884Z,39.80
2019-02-18T16:24:07.057Z,39.60
2019-02-18T16:26:14.923Z,38.63
2019-02-18T16:28:22.713Z,40.23
2019-02-18T16:30:31.226Z,41.37
2019-02-18T16:32:39.008Z,41.60
2019-02-18T16:34:46.794Z,40.70
2019-02-18T16:36:54.885Z,38.60
2019-02-18T16:39:02.559Z,41.03
2019-02-18T16:41:10.363Z,41.60
2019-02-18T16:43:18.509Z,44.13
2019-02-18T16:45:26.488Z,45.47
2019-02-18T16:47:34.446Z,46.70
2019-02-18T16:49:42.432Z,50.07
2019-02-18T16:51:50.573Z,48.53
2019-02-18T16:53:58.328Z,50.80
2019-02-18T16:56:06.239Z,52.83
2019-02-18T16:58:14.186Z,53.60
2019-02-18T17:00:26.490Z,56.43
2019-02-18T17:02:34.424Z,58.00
2019-02-18T17:04:42.279Z,57.43
2019-02-18T17:06:50.338Z,60.17
2019-02-18T17:08:58.475Z,61.57
2019-02-18T17:11:06.370Z,64.37
2019-02-18T17:13:14.228Z,69.23
2019-02-18T17:15:22.326Z,79.93
2019-02-18T17:17:30.131Z,77.77
2019-02-18T17:19:37.930Z,83.03
2019-02-18T17:21:45.873Z,81.67
2019-02-18T17:23:53.674Z,81.03
2019-02-18T17:26:01.535Z,73.87
2019-02-18T17:28:11.350Z,71.40
2019-02-18T17:30:20.400Z,68.33
2019-02-18T17:32:28.582Z,66.87
2019-02-18T17:34:36.449Z,61.93
2019-02-18T17:36:44.516Z,61.33
2019-02-18T17:38:52.725Z,60.43
2019-02-18T17:41:01.540Z,59.27
2019-02-18T17:43:16.208Z,57.63
2019-02-18T17:45:18.964Z,56.33
2019-02-18T17:47:26.724Z,55.97
2019-02-18T17:49:34.643Z,52.77
2019-02-18T17:51:42.464Z,53.43
2019-02-18T17:53:50.657Z,53.87
2019-02-18T17:55:58.528Z,53.80
2019-02-18T17:58:06.453Z,54.27
2019-02-18T18:00:18.350Z,53.73
2019-02-18T18:02:26.523Z,51.77
2019-02-18T18:04:34.713Z,52.50
2019-02-18T18:06:42.776Z,56.70
2019-02-18T18:08:50.892Z,55.67
2019-02-18T18:10:58.700Z,55.27
2019-02-18T18:13:06.438Z,55.73
2019-02-18T18:15:14.916Z,57.10
2019-02-18T18:17:23.626Z,58.73
2019-02-18T18:19:31.390Z,57.50
2019-02-18T18:21:39.196Z,57.93
2019-02-18T18:23:47.860Z,60.00
2019-02-18T18:25:55.970Z,57.03
2019-02-18T18:28:03.864Z,58.57
2019-02-18T18:30:13.601Z,64.20
2019-02-18T18:32:21.320Z,60.87
2019-02-18T18:34:29.330Z,61.23
2019-02-18T18:36:37.626Z,64.20
2019-02-18T18:38:45.536Z,62.80
2019-02-18T18:40:53.469Z,62.80
2019-02-18T18:43:02.435Z,61.23
2019-02-18T18:45:13.293Z,62.73
2019-02-18T18:47:21.447Z,61.13
2019-02-18T18:49:29.590Z,62.67
2019-02-18T18:51:38.067Z,61.83
2019-02-18T18:53:46.471Z,61.77
2019-02-18T18:55:55.041Z,59.37
2019-02-18T18:58:03.441Z,58.30
2019-02-18T19:00:20.257Z,55.13
2019-02-18T19:02:28.914Z,56.03
2019-02-18T19:04:36.848Z,54.83
2019-02-18T19:06:46.047Z,54.23
2019-02-18T19:08:53.856Z,62.10
2019-02-18T19:11:01.754Z,58.87
2019-02-18T19:13:10.889Z,61.87
2019-02-18T19:15:19.093Z,68.73
2019-02-18T19:17:27.468Z,67.30
2019-02-18T19:19:36.665Z,60.03
2019-02-18T19:21:44.575Z,56.57
2019-02-18T19:23:52.358Z,55.17
2019-02-18T19:26:00.294Z,53.10
2019-02-18T19:28:09.649Z,52.90
2019-02-18T19:30:21.211Z,54.33
2019-02-18T19:32:30.761Z,57.03
2019-02-18T19:34:38.545Z,57.10
2019-02-18T19:36:46.422Z,54.47
2019-02-18T19:38:54.382Z,55.20
2019-02-18T19:41:02.165Z,54.87
2019-02-18T19:43:11.014Z,52.87
2019-02-18T19:45:21.108Z,55.23
2019-02-18T19:47:29.556Z,54.37
2019-02-18T19:49:37.887Z,53.27
2019-02-18T19:51:45.598Z,52.93
2019-02-18T19:53:53.435Z,52.63
2019-02-18T19:56:01.361Z,52.10
2019-02-18T19:58:09.469Z,60.00
2019-02-18T20:00:18.836Z,66.50
2019-02-18T20:02:26.570Z,77.83
2019-02-18T20:04:34.664Z,77.60
2019-02-18T20:06:43.297Z,75.93
2019-02-18T20:08:51.815Z,87.63
2019-02-18T20:11:00.350Z,91.07
2019-02-18T20:13:09.158Z,89.70
2019-02-18T20:15:17.194Z,85.23
2019-02-18T20:17:25.091Z,90.00
2019-02-18T20:19:32.852Z,97.83
2019-02-18T20:21:41.185Z,94.27
2019-02-18T20:23:50.809Z,95.07
2019-02-18T20:25:58.924Z,88.93
2019-02-18T20:28:06.822Z,93.53
2019-02-18T20:30:15.147Z,92.97
2019-02-18T20:32:23.264Z,99.27
2019-02-18T20:34:31.169Z,95.07
2019-02-18T20:36:39.057Z,96.53
2019-02-18T20:38:47.110Z,96.23
2019-02-18T20:40:54.992Z,93.63
2019-02-18T20:43:02.789Z,98.50
2019-02-18T20:45:11.857Z,95.87
2019-02-18T20:47:21.462Z,95.70
2019-02-18T20:49:29.454Z,109.57
2019-02-18T20:51:37.437Z,115.03
2019-02-18T20:53:45.760Z,109.30
2019-02-18T20:55:53.822Z,111.00
2019-02-18T20:58:01.812Z,107.00
2019-02-18T21:00:16.778Z,107.67
2019-02-18T21:02:25.046Z,106.73
2019-02-18T21:04:32.980Z,105.80
2019-02-18T21:06:40.684Z,102.00
2019-02-18T21:08:48.486Z,101.07
2019-02-18T21:10:57.155Z,99.13
2019-02-18T21:13:05.046Z,98.87
2019-02-18T21:15:13.561Z,98.47
2019-02-18T21:17:21.795Z,111.93
2019-02-18T21:19:29.782Z,102.77
2019-02-18T21:21:37.846Z,99.37
2019-02-18T21:23:45.721Z,97.70
2019-02-18T21:25:53.662Z,99.47
2019-02-18T21:28:01.580Z,95.47
2019-02-18T21:30:10.641Z,111.10
2019-02-18T21:32:18.449Z,116.40
2019-02-18T21:34:26.341Z,148.07
2019-02-18T21:36:34.884Z,135.93
2019-02-18T21:38:42.854Z,107.97
2019-02-18T21:40:51.217Z,97.17
2019-02-18T21:42:59.297Z,89.47
2019-02-18T21:45:07.586Z,82.00
2019-02-18T21:47:15.434Z,77.63
2019-02-18T21:49:23.336Z,71.50
2019-02-18T21:51:31.070Z,71.57
2019-02-18T21:53:39.023Z,65.67
2019-02-18T21:55:47.054Z,63.37
2019-02-18T21:57:54.993Z,65.70
2019-02-18T22:00:02.927Z,67.87
2019-02-18T22:02:10.946Z,70.27
2019-02-18T22:04:18.778Z,67.53
2019-02-18T22:06:26.727Z,66.97
2019-02-18T22:08:34.557Z,65.20
2019-02-18T22:10:42.764Z,62.53
2019-02-18T22:12:50.581Z,61.93
2019-02-18T22:14:58.539Z,61.10
2019-02-18T22:17:06.442Z,60.67
2019-02-18T22:19:14.591Z,60.83
2019-02-18T22:21:23.964Z,61.40
2019-02-18T22:23:31.867Z,57.87
2019-02-18T22:25:40.056Z,58.33
2019-02-18T22:27:47.902Z,58.47
2019-02-18T22:29:55.655Z,55.87
2019-02-18T22:32:03.563Z,56.43
2019-02-18T22:34:11.379Z,56.70
2019-02-18T22:36:19.319Z,56.93
2019-02-18T22:38:27.210Z,58.17
2019-02-18T22:40:34.977Z,57.33
2019-02-18T22:42:42.755Z,58.83
2019-02-18T22:44:50.853Z,60.07
2019-02-18T22:46:58.809Z,58.73
2019-02-18T22:49:06.673Z,59.47
2019-02-18T22:51:14.411Z,55.30
2019-02-18T22:53:22.569Z,54.80
2019-02-18T22:55:30.384Z,55.97
2019-02-18T22:57:38.247Z,61.87
2019-02-18T22:59:46.047Z,70.80
2019-02-18T23:01:53.972Z,83.10
2019-02-18T23:04:01.872Z,80.13
2019-02-18T23:06:09.695Z,72.07
2019-02-18T23:08:17.717Z,68.13
2019-02-18T23:10:25.587Z,64.47
2019-02-18T23:12:33.127Z,59.83
2019-02-18T23:14:41.308Z,58.20
2019-02-18T23:16:49.239Z,57.97
2019-02-18T23:18:56.986Z,58.03
2019-02-18T23:21:05.017Z,57.90
2019-02-18T23:23:12.735Z,55.83
2019-02-18T23:25:20.541Z,57.40
2019-02-18T23:27:28.393Z,56.17
2019-02-18T23:29:36.517Z,56.37
2019-02-18T23:31:44.354Z,55.87
2019-02-18T23:33:51.942Z,56.23
2019-02-18T23:35:59.994Z,53.83
2019-02-18T23:38:07.886Z,55.43
2019-02-18T23:40:15.542Z,55.10
2019-02-18T23:42:23.384Z,55.47
2019-02-18T23:44:31.449Z,56.27
2019-02-18T23:46:39.320Z,54.93
2019-02-18T23:48:47.094Z,55.67
2019-02-18T23:50:54.948Z,54.77
2019-02-18T23:53:02.622Z,55.57
2019-02-18T23:55:10.482Z,55.87
2019-02-18T23:57:18.150Z,56.00
2019-02-18T23:59:25.914Z,57.03
